Detall de PIREP

Printer-friendly versionPDF version

[2010/03/13 17:34:00]
Flight IATA:CT1001
Pilot Number:026
Company ICAO:CAT
Aircraft Type:DC85/A
PAX:136
Departing Airport: LFKJ
Destination Airport: LICJ
Alternate Airport:LICA
Online: VATSIM
Route:CORSI UM858 RAMEN UM732 CAR UM871 KAPIL
Flight Level:FL310
No Slew and time accel
No pause
Crash detect
Detect pilot in Cockpit between each 30 and 45 minutes
17:34 Zero fuel Weight: 189027 Lbs, Fuel Weight: 30011 Lbs
17:34 VATSIM:LFKJ 131730Z 32005KT 290V350 9999 FEW041 10/04 Q1019 NOSIG
17:34 VATSIM:LICJ 131720Z 08011KT 8000 -RA FEW012 BKN025 10/08 Q1015
17:35 VOICE CATALONIAN / MEDITERRANEAN ODYSSEY
17:53 Parking Brakes off
17:59 Take-off
17:59 Take off Weight: 217942 Lbs
17:59 Wind: 062º @ 003 Knots Heading: 204º
17:59 POS N41º 54´ 46´´ E008º 47´ 44´´
17:59 Gear Up: 186 Knots
17:59 Flaps:2 at 187 Knots
18:00 Flaps:1 at 175 Knots
18:00 Flaps:0 at 170 Knots
18:10 T
OC
18:10 Fuel Weight: 24434 Lb
18:14 Wind:017º@019 Knots Heading: 171º Ground Speed: 492 Knots Altitude 31154 ft
18:29 Wind:050º@039 Knots Heading: 101º Ground Speed: 437 Knots Altitude 31115 ft
18:33 TOD
18:33 Fuel Weight: 18458 Lb
18:44 Wind:037º@013 Knots Heading: 110º Ground Speed: 389 Knots Altitude 16043 ft
18:56 Flaps:1 at 204 Knots
18:58 Gear Down: 164 Knots
18:59 Wind:049º@007 Knots Heading: 055º Ground Speed: 161 Knots Altitude 2142 ft
18:59 Flaps:2 at 163 Knots
18:59 Flaps:4 at 156 Knots
19:00 Flaps:5 at 161 Knots
19:00 Flaps:3 at 121 Knots
19:00 Gear Up: 122 Knots
19:00 Gear Down: 129 Knots
19:01 Flaps:2 at 155 Knots
19:02 Flaps:1 at 140 Knots
19:02 Flaps:0 at 143 Knots
19:02 Gear Up: 148 Knots
19:10 Flaps:1 at 231 Knots
19:13 Gear Down: 177 Knots
19:13 Flaps:2 at 173 Knots
19:14 Wind:059º@007 Knots Heading: 066º Ground Speed: 166 Knots Altit
ude 1335 ft
19:14 Flaps:3 at 166 Knots
19:15 Flaps:4 at 154 Knots
19:15 TouchDown:Rate -20 ft/min Speed: 134 Knots
19:16 VATSIM:LICJ 131850Z 05007KT 8000 -RA FEW012 BKN025 10/06 Q1016
19:16 Land
19:16 Wind:059º@007 Knots
19:16 Heading: 067º
19:16 Flight Duration: 01:17
19:16 Landing Weight: 201575 Lbs
19:16 POS N38º 10´ 58´´ E013º 06´ 43´´
19:20 Parking brakes on
19:20 Block to Block Duration: 01:27
19:20 Final Fuel: 12167 Lbls
19:20 Spent Fuel: 17843 Lbls
19:20 Flight Length: 445 NM
19:20 TOD Land Length: 200 NM

Exportar CSV

Powered by Drupal - Modified by Danger4k